sensor_id;sensor_type;location;lat;lon;timestamp;P1;P2;P0
24012;PMS7003;12220;50.194;18.948;2023-02-13T00:00:30;104;84;44
24012;PMS7003;12220;50.194;18.948;2023-02-13T00:02:41;94;84;47
24012;PMS7003;12220;50.194;18.948;2023-02-13T00:04:44;93;85;46
24012;PMS7003;12220;50.194;18.948;2023-02-13T00:06:45;83;77;45
24012;PMS7003;12220;50.194;18.948;2023-02-13T00:08:50;86;72;47
24012;PMS7003;12220;50.194;18.948;2023-02-13T00:10:52;83;71;45
24012;PMS7003;12220;50.194;18.948;2023-02-13T00:12:54;89;84;44
24012;PMS7003;12220;50.194;18.948;2023-02-13T00:14:55;96;86;45
24012;PMS7003;12220;50.194;18.948;2023-02-13T00:17:05;92;82;45
24012;PMS7003;12220;50.194;18.948;2023-02-13T00:19:06;94;83;46
24012;PMS7003;12220;50.194;18.948;2023-02-13T00:21:10;89;77;41
24012;PMS7003;12220;50.194;18.948;2023-02-13T00:23:12;89;68;36
24012;PMS7003;12220;50.194;18.948;2023-02-13T00:25:20;76;60;35
24012;PMS7003;12220;50.194;18.948;2023-02-13T00:27:24;76;60;33
24012;PMS7003;12220;50.194;18.948;2023-02-13T00:29:26;74;52;32
24012;PMS7003;12220;50.194;18.948;2023-02-13T00:31:27;74;60;33
24012;PMS7003;12220;50.194;18.948;2023-02-13T00:33:36;67;51;31
24012;PMS7003;12220;50.194;18.948;2023-02-13T00:35:40;75;53;32
24012;PMS7003;12220;50.194;18.948;2023-02-13T00:37:42;67;50;31
24012;PMS7003;12220;50.194;18.948;2023-02-13T00:39:43;66;47;29
24012;PMS7003;12220;50.194;18.948;2023-02-13T00:41:51;63;49;32
24012;PMS7003;12220;50.194;18.948;2023-02-13T00:43:52;74;56;33
24012;PMS7003;12220;50.194;18.948;2023-02-13T00:45:54;81;70;39
24012;PMS7003;12220;50.194;18.948;2023-02-13T00:47:58;82;73;41
24012;PMS7003;12220;50.194;18.948;2023-02-13T00:50:06;76;60;37
24012;PMS7003;12220;50.194;18.948;2023-02-13T00:52:08;80;68;37
24012;PMS7003;12220;50.194;18.948;2023-02-13T00:54:10;78;64;37
24012;PMS7003;12220;50.194;18.948;2023-02-13T00:56:11;72;60;34
24012;PMS7003;12220;50.194;18.948;2023-02-13T00:58:22;74;54;36
24012;PMS7003;12220;50.194;18.948;2023-02-13T01:00:24;75;57;34
24012;PMS7003;12220;50.194;18.948;2023-02-13T01:02:25;72;56;34
24012;PMS7003;12220;50.194;18.948;2023-02-13T01:06:40;64;48;29
24012;PMS7003;12220;50.194;18.948;2023-02-13T01:08:41;64;49;29
24012;PMS7003;12220;50.194;18.948;2023-02-13T01:10:44;64;49;29
24012;PMS7003;12220;50.194;18.948;2023-02-13T01:15:08;56;43;27
24012;PMS7003;12220;50.194;18.948;2023-02-13T01:17:15;59;45;26
24012;PMS7003;12220;50.194;18.948;2023-02-13T01:19:16;53;43;26
24012;PMS7003;12220;50.194;18.948;2023-02-13T01:21:19;56;44;28
24012;PMS7003;12220;50.194;18.948;2023-02-13T01:23:23;59;44;28
24012;PMS7003;12220;50.194;18.948;2023-02-13T01:25:29;65;48;31
24012;PMS7003;12220;50.194;18.948;2023-02-13T01:27:30;64;48;29
24012;PMS7003;12220;50.194;18.948;2023-02-13T01:29:32;68;52;33
24012;PMS7003;12220;50.194;18.948;2023-02-13T01:31:34;67;51;27
24012;PMS7003;12220;50.194;18.948;2023-02-13T01:33:45;70;51;31
24012;PMS7003;12220;50.194;18.948;2023-02-13T01:35:46;67;52;31
24012;PMS7003;12220;50.194;18.948;2023-02-13T01:37:48;65;51;31
24012;PMS7003;12220;50.194;18.948;2023-02-13T01:39:50;57;47;32
24012;PMS7003;12220;50.194;18.948;2023-02-13T01:42:01;64;50;30
24012;PMS7003;12220;50.194;18.948;2023-02-13T01:44:03;65;50;29
24012;PMS7003;12220;50.194;18.948;2023-02-13T01:46:16;65;47;27
24012;PMS7003;12220;50.194;18.948;2023-02-13T01:48:24;59;47;29
24012;PMS7003;12220;50.194;18.948;2023-02-13T01:52:43;68;50;29
24012;PMS7003;12220;50.194;18.948;2023-02-13T01:54:49;61;46;30
24012;PMS7003;12220;50.194;18.948;2023-02-13T01:56:52;69;51;30
24012;PMS7003;12220;50.194;18.948;2023-02-13T01:58:59;69;49;31
24012;PMS7003;12220;50.194;18.948;2023-02-13T02:01:05;69;52;32
24012;PMS7003;12220;50.194;18.948;2023-02-13T02:03:28;58;44;30
24012;PMS7003;12220;50.194;18.948;2023-02-13T02:05:28;65;49;29
24012;PMS7003;12220;50.194;18.948;2023-02-13T02:07:33;58;47;28
24012;PMS7003;12220;50.194;18.948;2023-02-13T02:09:36;55;44;29
24012;PMS7003;12220;50.194;18.948;2023-02-13T02:12:05;56;42;26
24012;PMS7003;12220;50.194;18.948;2023-02-13T02:13:59;52;42;26
24012;PMS7003;12220;50.194;18.948;2023-02-13T02:34:09;58;43;26
24012;PMS7003;12220;50.194;18.948;2023-02-13T02:57:38;55;40;24
24012;PMS7003;12220;50.194;18.948;2023-02-13T02:59:59;44;32;20
24012;PMS7003;12220;50.194;18.948;2023-02-13T03:02:19;31;26;17
24012;PMS7003;12220;50.194;18.948;2023-02-13T03:04:42;34;32;19
24012;PMS7003;12220;50.194;18.948;2023-02-13T03:07:04;40;30;19
24012;PMS7003;12220;50.194;18.948;2023-02-13T03:09:09;40;31;19
24012;PMS7003;12220;50.194;18.948;2023-02-13T03:11:27;42;33;18
24012;PMS7003;12220;50.194;18.948;2023-02-13T03:13:43;38;29;17
24012;PMS7003;12220;50.194;18.948;2023-02-13T03:15:49;34;25;15
24012;PMS7003;12220;50.194;18.948;2023-02-13T03:18:07;34;25;15
24012;PMS7003;12220;50.194;18.948;2023-02-13T03:25:06;30;27;13
24012;PMS7003;12220;50.194;18.948;2023-02-13T03:32:09;29;27;17
24012;PMS7003;12220;50.194;18.948;2023-02-13T03:34:24;38;30;16
24012;PMS7003;12220;50.194;18.948;2023-02-13T03:41:33;34;28;13
24012;PMS7003;12220;50.194;18.948;2023-02-13T03:43:57;39;30;19
24012;PMS7003;12220;50.194;18.948;2023-02-13T03:46:12;31;27;17
24012;PMS7003;12220;50.194;18.948;2023-02-13T03:48:17;45;34;18
24012;PMS7003;12220;50.194;18.948;2023-02-13T03:50:35;34;27;14
24012;PMS7003;12220;50.194;18.948;2023-02-13T03:52:50;38;31;19
24012;PMS7003;12220;50.194;18.948;2023-02-13T03:54:59;40;29;19
24012;PMS7003;12220;50.194;18.948;2023-02-13T03:57:17;45;32;17
24012;PMS7003;12220;50.194;18.948;2023-02-13T03:59:33;39;30;16
24012;PMS7003;12220;50.194;18.948;2023-02-13T04:08:48;42;31;17
24012;PMS7003;12220;50.194;18.948;2023-02-13T04:10:54;41;30;18
24012;PMS7003;12220;50.194;18.948;2023-02-13T04:15:18;42;34;19
24012;PMS7003;12220;50.194;18.948;2023-02-13T04:17:29;42;31;18
24012;PMS7003;12220;50.194;18.948;2023-02-13T04:19:36;46;30;17
24012;PMS7003;12220;50.194;18.948;2023-02-13T04:21:38;44;31;18
24012;PMS7003;12220;50.194;18.948;2023-02-13T04:23:40;39;26;15
24012;PMS7003;12220;50.194;18.948;2023-02-13T04:25:43;41;24;16
24012;PMS7003;12220;50.194;18.948;2023-02-13T04:27:48;33;26;13
24012;PMS7003;12220;50.194;18.948;2023-02-13T04:29:50;43;30;15
24012;PMS7003;12220;50.194;18.948;2023-02-13T04:31:51;44;31;15
24012;PMS7003;12220;50.194;18.948;2023-02-13T04:33:53;34;30;16
24012;PMS7003;12220;50.194;18.948;2023-02-13T04:36:01;35;25;12
24012;PMS7003;12220;50.194;18.948;2023-02-13T04:38:03;36;27;13
24012;PMS7003;12220;50.194;18.948;2023-02-13T04:40:05;35;28;15
24012;PMS7003;12220;50.194;18.948;2023-02-13T04:42:07;25;21;14
24012;PMS7003;12220;50.194;18.948;2023-02-13T04:44:17;26;22;12
24012;PMS7003;12220;50.194;18.948;2023-02-13T04:46:19;29;23;10
24012;PMS7003;12220;50.194;18.948;2023-02-13T04:48:20;22;19;13
24012;PMS7003;12220;50.194;18.948;2023-02-13T04:50:24;29;18;11
24012;PMS7003;12220;50.194;18.948;2023-02-13T04:52:32;30;25;15
24012;PMS7003;12220;50.194;18.948;2023-02-13T04:54:34;30;25;14
24012;PMS7003;12220;50.194;18.948;2023-02-13T04:56:35;25;21;15
24012;PMS7003;12220;50.194;18.948;2023-02-13T04:58:37;30;24;14
24012;PMS7003;12220;50.194;18.948;2023-02-13T05:00:47;28;25;14
24012;PMS7003;12220;50.194;18.948;2023-02-13T05:02:52;31;26;12
24012;PMS7003;12220;50.194;18.948;2023-02-13T05:04:54;32;29;14
24012;PMS7003;12220;50.194;18.948;2023-02-13T05:06:56;28;27;16
24012;PMS7003;12220;50.194;18.948;2023-02-13T05:09:03;32;28;15
24012;PMS7003;12220;50.194;18.948;2023-02-13T05:11:04;33;25;13
24012;PMS7003;12220;50.194;18.948;2023-02-13T05:13:06;36;28;14
24012;PMS7003;12220;50.194;18.948;2023-02-13T05:15:08;29;26;15
24012;PMS7003;12220;50.194;18.948;2023-02-13T05:17:18;32;25;13
24012;PMS7003;12220;50.194;18.948;2023-02-13T05:19:22;28;24;14
24012;PMS7003;12220;50.194;18.948;2023-02-13T05:21:23;45;33;19
24012;PMS7003;12220;50.194;18.948;2023-02-13T05:23:37;34;28;12
24012;PMS7003;12220;50.194;18.948;2023-02-13T05:25:39;27;24;12
24012;PMS7003;12220;50.194;18.948;2023-02-13T05:29:59;38;29;17
24012;PMS7003;12220;50.194;18.948;2023-02-13T05:32:01;34;25;14
24012;PMS7003;12220;50.194;18.948;2023-02-13T05:34:05;39;27;16
24012;PMS7003;12220;50.194;18.948;2023-02-13T05:36:07;33;24;15
24012;PMS7003;12220;50.194;18.948;2023-02-13T05:38:08;26;21;10
24012;PMS7003;12220;50.194;18.948;2023-02-13T05:40:13;28;21;13
24012;PMS7003;12220;50.194;18.948;2023-02-13T05:42:20;27;24;13
24012;PMS7003;12220;50.194;18.948;2023-02-13T05:44:22;38;31;15
24012;PMS7003;12220;50.194;18.948;2023-02-13T05:46:23;32;26;15
24012;PMS7003;12220;50.194;18.948;2023-02-13T05:48:25;25;22;12
24012;PMS7003;12220;50.194;18.948;2023-02-13T05:50:35;29;24;14
24012;PMS7003;12220;50.194;18.948;2023-02-13T05:52:37;26;22;14
24012;PMS7003;12220;50.194;18.948;2023-02-13T05:54:39;28;22;11
24012;PMS7003;12220;50.194;18.948;2023-02-13T05:56:40;10;8;0
24012;PMS7003;12220;50.194;18.948;2023-02-13T05:58:54;25;20;13
24012;PMS7003;12220;50.194;18.948;2023-02-13T06:00:56;30;25;13
24012;PMS7003;12220;50.194;18.948;2023-02-13T06:02:59;26;18;12
24012;PMS7003;12220;50.194;18.948;2023-02-13T06:05:00;31;19;11
24012;PMS7003;12220;50.194;18.948;2023-02-13T06:07:05;24;23;11
24012;PMS7003;12220;50.194;18.948;2023-02-13T06:09:07;25;17;9
24012;PMS7003;12220;50.194;18.948;2023-02-13T06:11:10;22;19;10
24012;PMS7003;12220;50.194;18.948;2023-02-13T06:13:15;22;17;8
24012;PMS7003;12220;50.194;18.948;2023-02-13T06:15:20;22;18;11
24012;PMS7003;12220;50.194;18.948;2023-02-13T06:17:22;19;14;9
24012;PMS7003;12220;50.194;18.948;2023-02-13T06:19:23;23;16;9
24012;PMS7003;12220;50.194;18.948;2023-02-13T06:21:25;26;20;10
24012;PMS7003;12220;50.194;18.948;2023-02-13T06:23:36;25;23;12
24012;PMS7003;12220;50.194;18.948;2023-02-13T06:25:37;24;21;13
24012;PMS7003;12220;50.194;18.948;2023-02-13T06:27:42;23;20;13
24012;PMS7003;12220;50.194;18.948;2023-02-13T06:29:43;21;17;11
24012;PMS7003;12220;50.194;18.948;2023-02-13T06:31:51;21;19;12
24012;PMS7003;12220;50.194;18.948;2023-02-13T06:33:57;24;19;13
24012;PMS7003;12220;50.194;18.948;2023-02-13T06:35:59;30;20;14
24012;PMS7003;12220;50.194;18.948;2023-02-13T06:38:00;41;32;20
24012;PMS7003;12220;50.194;18.948;2023-02-13T06:40:06;40;30;19
24012;PMS7003;12220;50.194;18.948;2023-02-13T06:42:09;31;27;19
24012;PMS7003;12220;50.194;18.948;2023-02-13T06:44:10;35;31;19
24012;PMS7003;12220;50.194;18.948;2023-02-13T06:46:18;30;27;15
24012;PMS7003;12220;50.194;18.948;2023-02-13T06:48:21;26;22;15
24012;PMS7003;12220;50.194;18.948;2023-02-13T06:50:23;32;28;18
24012;PMS7003;12220;50.194;18.948;2023-02-13T06:52:24;34;28;17
24012;PMS7003;12220;50.194;18.948;2023-02-13T06:54:26;34;28;15
24012;PMS7003;12220;50.194;18.948;2023-02-13T06:56:36;33;25;16
24012;PMS7003;12220;50.194;18.948;2023-02-13T06:58:37;32;28;17
24012;PMS7003;12220;50.194;18.948;2023-02-13T07:00:39;27;22;14
24012;PMS7003;12220;50.194;18.948;2023-02-13T07:02:41;30;21;16
24012;PMS7003;12220;50.194;18.948;2023-02-13T07:04:52;29;27;17
24012;PMS7003;12220;50.194;18.948;2023-02-13T07:06:54;28;27;14
24012;PMS7003;12220;50.194;18.948;2023-02-13T07:08:56;20;17;12
24012;PMS7003;12220;50.194;18.948;2023-02-13T07:10:58;33;26;15
24012;PMS7003;12220;50.194;18.948;2023-02-13T07:13:07;36;30;19
24012;PMS7003;12220;50.194;18.948;2023-02-13T07:15:10;37;30;16
24012;PMS7003;12220;50.194;18.948;2023-02-13T07:17:12;40;35;21
24012;PMS7003;12220;50.194;18.948;2023-02-13T07:19:14;50;39;23
24012;PMS7003;12220;50.194;18.948;2023-02-13T07:21:22;47;37;24
24012;PMS7003;12220;50.194;18.948;2023-02-13T07:23:24;46;36;23
24012;PMS7003;12220;50.194;18.948;2023-02-13T07:25:25;43;35;23
24012;PMS7003;12220;50.194;18.948;2023-02-13T07:27:27;36;32;19
24012;PMS7003;12220;50.194;18.948;2023-02-13T07:29:37;37;31;20
24012;PMS7003;12220;50.194;18.948;2023-02-13T07:31:40;34;29;19
24012;PMS7003;12220;50.194;18.948;2023-02-13T07:33:42;31;28;21
24012;PMS7003;12220;50.194;18.948;2023-02-13T07:35:47;52;39;24
24012;PMS7003;12220;50.194;18.948;2023-02-13T07:37:53;41;33;22
24012;PMS7003;12220;50.194;18.948;2023-02-13T07:39:55;50;37;23
24012;PMS7003;12220;50.194;18.948;2023-02-13T07:41:56;28;27;19
24012;PMS7003;12220;50.194;18.948;2023-02-13T07:44:00;37;32;19
24012;PMS7003;12220;50.194;18.948;2023-02-13T07:46:08;47;38;25
24012;PMS7003;12220;50.194;18.948;2023-02-13T07:48:09;50;40;23
24012;PMS7003;12220;50.194;18.948;2023-02-13T07:50:11;51;43;26
24012;PMS7003;12220;50.194;18.948;2023-02-13T07:52:13;53;43;25
24012;PMS7003;12220;50.194;18.948;2023-02-13T07:54:23;52;41;27
24012;PMS7003;12220;50.194;18.948;2023-02-13T07:56:25;50;40;24
24012;PMS7003;12220;50.194;18.948;2023-02-13T07:58:26;47;35;23
24012;PMS7003;12220;50.194;18.948;2023-02-13T08:00:29;44;35;21
24012;PMS7003;12220;50.194;18.948;2023-02-13T08:02:38;50;37;23
24012;PMS7003;12220;50.194;18.948;2023-02-13T08:04:40;41;34;22
24012;PMS7003;12220;50.194;18.948;2023-02-13T08:06:45;44;36;25
24012;PMS7003;12220;50.194;18.948;2023-02-13T08:08:47;46;36;21
24012;PMS7003;12220;50.194;18.948;2023-02-13T08:11:24;44;33;20
24012;PMS7003;12220;50.194;18.948;2023-02-13T08:13:19;46;34;21
24012;PMS7003;12220;50.194;18.948;2023-02-13T08:15:20;39;30;20
24012;PMS7003;12220;50.194;18.948;2023-02-13T08:17:23;41;34;20
24012;PMS7003;12220;50.194;18.948;2023-02-13T08:19:24;29;27;17
24012;PMS7003;12220;50.194;18.948;2023-02-13T08:21:30;20;18;14
24012;PMS7003;12220;50.194;18.948;2023-02-13T08:23:31;32;22;14
24012;PMS7003;12220;50.194;18.948;2023-02-13T08:25:33;35;32;20
24012;PMS7003;12220;50.194;18.948;2023-02-13T08:27:35;36;32;19
24012;PMS7003;12220;50.194;18.948;2023-02-13T08:29:45;29;22;14
24012;PMS7003;12220;50.194;18.948;2023-02-13T08:31:46;38;33;21
24012;PMS7003;12220;50.194;18.948;2023-02-13T08:33:50;51;35;21
24012;PMS7003;12220;50.194;18.948;2023-02-13T08:35:52;23;21;17
24012;PMS7003;12220;50.194;18.948;2023-02-13T08:38:00;30;30;18
24012;PMS7003;12220;50.194;18.948;2023-02-13T08:40:05;28;26;17
24012;PMS7003;12220;50.194;18.948;2023-02-13T08:42:10;34;31;19
24012;PMS7003;12220;50.194;18.948;2023-02-13T08:44:11;31;27;19
24012;PMS7003;12220;50.194;18.948;2023-02-13T08:46:15;33;30;20
24012;PMS7003;12220;50.194;18.948;2023-02-13T08:48:17;33;29;20
24012;PMS7003;12220;50.194;18.948;2023-02-13T08:50:21;45;36;23
24012;PMS7003;12220;50.194;18.948;2023-02-13T08:52:23;54;38;25
24012;PMS7003;12220;50.194;18.948;2023-02-13T08:54:30;45;36;24
24012;PMS7003;12220;50.194;18.948;2023-02-13T08:56:35;41;34;23
24012;PMS7003;12220;50.194;18.948;2023-02-13T08:58:37;44;36;22
24012;PMS7003;12220;50.194;18.948;2023-02-13T09:00:39;53;41;26
24012;PMS7003;12220;50.194;18.948;2023-02-13T09:02:45;58;42;26
24012;PMS7003;12220;50.194;18.948;2023-02-13T09:04:47;50;40;25
24012;PMS7003;12220;50.194;18.948;2023-02-13T09:06:48;57;44;28
24012;PMS7003;12220;50.194;18.948;2023-02-13T09:08:50;60;47;28
24012;PMS7003;12220;50.194;18.948;2023-02-13T09:11:01;51;39;24
24012;PMS7003;12220;50.194;18.948;2023-02-13T09:13:06;51;36;23
24012;PMS7003;12220;50.194;18.948;2023-02-13T09:15:08;45;36;21
24012;PMS7003;12220;50.194;18.948;2023-02-13T09:17:10;43;36;24
24012;PMS7003;12220;50.194;18.948;2023-02-13T09:19:15;46;38;22
24012;PMS7003;12220;50.194;18.948;2023-02-13T09:21:18;51;40;24
24012;PMS7003;12220;50.194;18.948;2023-02-13T09:23:23;49;38;25
24012;PMS7003;12220;50.194;18.948;2023-02-13T09:25:24;40;33;20
24012;PMS7003;12220;50.194;18.948;2023-02-13T09:27:30;45;33;22
24012;PMS7003;12220;50.194;18.948;2023-02-13T09:29:34;33;31;19
24012;PMS7003;12220;50.194;18.948;2023-02-13T09:31:36;33;31;21
24012;PMS7003;12220;50.194;18.948;2023-02-13T09:33:38;33;30;19
24012;PMS7003;12220;50.194;18.948;2023-02-13T09:35:45;42;30;21
24012;PMS7003;12220;50.194;18.948;2023-02-13T09:37:47;30;25;15
24012;PMS7003;12220;50.194;18.948;2023-02-13T09:39:48;28;24;16
24012;PMS7003;12220;50.194;18.948;2023-02-13T09:41:50;44;32;21
24012;PMS7003;12220;50.194;18.948;2023-02-13T09:44:29;37;31;22
24012;PMS7003;12220;50.194;18.948;2023-02-13T09:46:28;41;29;21
24012;PMS7003;12220;50.194;18.948;2023-02-13T09:48:44;33;26;16
24012;PMS7003;12220;50.194;18.948;2023-02-13T09:50:50;29;24;15
24012;PMS7003;12220;50.194;18.948;2023-02-13T09:52:52;24;19;16
24012;PMS7003;12220;50.194;18.948;2023-02-13T09:54:55;31;26;17
24012;PMS7003;12220;50.194;18.948;2023-02-13T09:57:00;28;26;15
24012;PMS7003;12220;50.194;18.948;2023-02-13T10:03:42;29;25;16
24012;PMS7003;12220;50.194;18.948;2023-02-13T10:06:02;22;22;17
24012;PMS7003;12220;50.194;18.948;2023-02-13T10:22:03;37;31;20
24012;PMS7003;12220;50.194;18.948;2023-02-13T10:24:11;39;34;21
24012;PMS7003;12220;50.194;18.948;2023-02-13T10:26:39;44;34;23
24012;PMS7003;12220;50.194;18.948;2023-02-13T10:29:05;45;37;22
24012;PMS7003;12220;50.194;18.948;2023-02-13T10:31:11;43;32;21
24012;PMS7003;12220;50.194;18.948;2023-02-13T10:33:17;35;30;21
24012;PMS7003;12220;50.194;18.948;2023-02-13T10:35:26;39;33;22
24012;PMS7003;12220;50.194;18.948;2023-02-13T10:37:32;41;34;22
24012;PMS7003;12220;50.194;18.948;2023-02-13T10:39:39;35;33;22
24012;PMS7003;12220;50.194;18.948;2023-02-13T10:46:36;41;30;19
24012;PMS7003;12220;50.194;18.948;2023-02-13T10:53:00;33;27;19
24012;PMS7003;12220;50.194;18.948;2023-02-13T11:02:23;30;27;17
24012;PMS7003;12220;50.194;18.948;2023-02-13T11:04:29;36;30;20
24012;PMS7003;12220;50.194;18.948;2023-02-13T11:16:20;37;32;21
24012;PMS7003;12220;50.194;18.948;2023-02-13T11:18:21;42;34;22
24012;PMS7003;12220;50.194;18.948;2023-02-13T11:22:38;48;38;22
24012;PMS7003;12220;50.194;18.948;2023-02-13T11:26:59;42;35;22
24012;PMS7003;12220;50.194;18.948;2023-02-13T11:31:29;35;32;20
24012;PMS7003;12220;50.194;18.948;2023-02-13T11:33:32;35;29;18
24012;PMS7003;12220;50.194;18.948;2023-02-13T11:35:34;31;30;19
24012;PMS7003;12220;50.194;18.948;2023-02-13T11:37:39;35;32;21
24012;PMS7003;12220;50.194;18.948;2023-02-13T11:39:42;37;29;18
24012;PMS7003;12220;50.194;18.948;2023-02-13T11:41:45;26;22;14
24012;PMS7003;12220;50.194;18.948;2023-02-13T11:43:57;36;31;21
24012;PMS7003;12220;50.194;18.948;2023-02-13T11:48:19;34;29;15
24012;PMS7003;12220;50.194;18.948;2023-02-13T11:50:29;34;30;21
24012;PMS7003;12220;50.194;18.948;2023-02-13T11:52:38;31;28;18
24012;PMS7003;12220;50.194;18.948;2023-02-13T11:54:44;27;27;19
24012;PMS7003;12220;50.194;18.948;2023-02-13T11:56:54;36;30;19
24012;PMS7003;12220;50.194;18.948;2023-02-13T11:59:01;36;32;20
24012;PMS7003;12220;50.194;18.948;2023-02-13T12:03:24;38;30;21
24012;PMS7003;12220;50.194;18.948;2023-02-13T12:05:30;32;29;21
24012;PMS7003;12220;50.194;18.948;2023-02-13T12:07:31;29;27;19
24012;PMS7003;12220;50.194;18.948;2023-02-13T12:09:33;31;29;19
24012;PMS7003;12220;50.194;18.948;2023-02-13T12:11:42;45;33;21
24012;PMS7003;12220;50.194;18.948;2023-02-13T12:13:58;27;23;17
24012;PMS7003;12220;50.194;18.948;2023-02-13T12:20:32;23;20;14
24012;PMS7003;12220;50.194;18.948;2023-02-13T12:25:01;27;23;15
24012;PMS7003;12220;50.194;18.948;2023-02-13T12:34:18;25;21;13
24012;PMS7003;12220;50.194;18.948;2023-02-13T12:38:58;22;22;12
24012;PMS7003;12220;50.194;18.948;2023-02-13T12:41:14;26;20;15
24012;PMS7003;12220;50.194;18.948;2023-02-13T12:50:05;21;20;15
24012;PMS7003;12220;50.194;18.948;2023-02-13T12:54:33;34;25;16
24012;PMS7003;12220;50.194;18.948;2023-02-13T12:56:46;23;23;14
24012;PMS7003;12220;50.194;18.948;2023-02-13T12:59:04;37;31;21
24012;PMS7003;12220;50.194;18.948;2023-02-13T13:13:18;33;31;20
24012;PMS7003;12220;50.194;18.948;2023-02-13T13:27:22;29;24;15
24012;PMS7003;12220;50.194;18.948;2023-02-13T13:43:02;32;30;19
24012;PMS7003;12220;50.194;18.948;2023-02-13T13:49:58;33;28;18
24012;PMS7003;12220;50.194;18.948;2023-02-13T13:52:10;30;25;17
24012;PMS7003;12220;50.194;18.948;2023-02-13T13:54:19;35;30;18
24012;PMS7003;12220;50.194;18.948;2023-02-13T13:56:23;26;24;17
24012;PMS7003;12220;50.194;18.948;2023-02-13T14:00:44;40;32;19
24012;PMS7003;12220;50.194;18.948;2023-02-13T14:02:49;35;32;20
24012;PMS7003;12220;50.194;18.948;2023-02-13T14:07:20;38;30;19
24012;PMS7003;12220;50.194;18.948;2023-02-13T14:11:41;35;31;20
24012;PMS7003;12220;50.194;18.948;2023-02-13T14:13:44;36;30;17
24012;PMS7003;12220;50.194;18.948;2023-02-13T14:15:49;36;31;19
24012;PMS7003;12220;50.194;18.948;2023-02-13T14:17:52;29;26;17
24012;PMS7003;12220;50.194;18.948;2023-02-13T14:19:55;31;26;14
24012;PMS7003;12220;50.194;18.948;2023-02-13T14:24:21;16;16;11
24012;PMS7003;12220;50.194;18.948;2023-02-13T14:28:37;23;19;12
24012;PMS7003;12220;50.194;18.948;2023-02-13T14:30:43;23;21;12
24012;PMS7003;12220;50.194;18.948;2023-02-13T14:32:45;26;20;13
24012;PMS7003;12220;50.194;18.948;2023-02-13T14:37:01;18;15;8
24012;PMS7003;12220;50.194;18.948;2023-02-13T14:45:54;12;11;8
24012;PMS7003;12220;50.194;18.948;2023-02-13T14:48:06;11;10;6
24012;PMS7003;12220;50.194;18.948;2023-02-13T14:52:33;11;11;8
24012;PMS7003;12220;50.194;18.948;2023-02-13T14:54:45;13;10;7
24012;PMS7003;12220;50.194;18.948;2023-02-13T14:56:58;9;9;7
24012;PMS7003;12220;50.194;18.948;2023-02-13T14:59:25;6;6;5
24012;PMS7003;12220;50.194;18.948;2023-02-13T15:03:36;7;7;7
24012;PMS7003;12220;50.194;18.948;2023-02-13T15:05:58;10;7;5
24012;PMS7003;12220;50.194;18.948;2023-02-13T15:08:05;8;8;5
24012;PMS7003;12220;50.194;18.948;2023-02-13T15:12:32;7;7;5
24012;PMS7003;12220;50.194;18.948;2023-02-13T15:14:36;10;7;5
24012;PMS7003;12220;50.194;18.948;2023-02-13T15:16:45;8;6;5
24012;PMS7003;12220;50.194;18.948;2023-02-13T15:18:51;6;6;5
24012;PMS7003;12220;50.194;18.948;2023-02-13T15:20:55;6;6;4
24012;PMS7003;12220;50.194;18.948;2023-02-13T15:23:00;11;8;6
24012;PMS7003;12220;50.194;18.948;2023-02-13T15:25:03;9;7;5
24012;PMS7003;12220;50.194;18.948;2023-02-13T15:27:12;8;7;5
24012;PMS7003;12220;50.194;18.948;2023-02-13T15:29:19;9;9;6
24012;PMS7003;12220;50.194;18.948;2023-02-13T15:31:22;11;8;5
24012;PMS7003;12220;50.194;18.948;2023-02-13T15:33:25;7;7;4
24012;PMS7003;12220;50.194;18.948;2023-02-13T15:35:29;11;11;8
24012;PMS7003;12220;50.194;18.948;2023-02-13T15:37:33;11;10;7
24012;PMS7003;12220;50.194;18.948;2023-02-13T15:39:35;13;11;8
24012;PMS7003;12220;50.194;18.948;2023-02-13T15:41:41;14;9;7
24012;PMS7003;12220;50.194;18.948;2023-02-13T15:43:49;9;9;8
24012;PMS7003;12220;50.194;18.948;2023-02-13T15:45:53;13;10;7
24012;PMS7003;12220;50.194;18.948;2023-02-13T15:48:00;10;8;5
24012;PMS7003;12220;50.194;18.948;2023-02-13T15:50:02;13;11;8
24012;PMS7003;12220;50.194;18.948;2023-02-13T15:52:07;5;5;4
24012;PMS7003;12220;50.194;18.948;2023-02-13T15:56:27;8;8;5
24012;PMS7003;12220;50.194;18.948;2023-02-13T15:58:31;13;11;7
24012;PMS7003;12220;50.194;18.948;2023-02-13T16:00:41;15;12;9
24012;PMS7003;12220;50.194;18.948;2023-02-13T16:02:43;6;5;2
24012;PMS7003;12220;50.194;18.948;2023-02-13T16:04:51;13;13;8
24012;PMS7003;12220;50.194;18.948;2023-02-13T16:06:54;13;13;8
24012;PMS7003;12220;50.194;18.948;2023-02-13T16:08:58;10;10;7
24012;PMS7003;12220;50.194;18.948;2023-02-13T16:13:15;12;10;8
24012;PMS7003;12220;50.194;18.948;2023-02-13T16:15:20;11;11;8
24012;PMS7003;12220;50.194;18.948;2023-02-13T16:17:29;9;9;6
24012;PMS7003;12220;50.194;18.948;2023-02-13T16:22:16;11;8;5
24012;PMS7003;12220;50.194;18.948;2023-02-13T16:24:22;14;13;9
24012;PMS7003;12220;50.194;18.948;2023-02-13T16:26:26;12;9;6
24012;PMS7003;12220;50.194;18.948;2023-02-13T16:28:29;17;13;10
24012;PMS7003;12220;50.194;18.948;2023-02-13T16:30:36;17;16;10
24012;PMS7003;12220;50.194;18.948;2023-02-13T16:32:40;21;15;9
24012;PMS7003;12220;50.194;18.948;2023-02-13T16:34:41;19;18;13
24012;PMS7003;12220;50.194;18.948;2023-02-13T16:36:43;16;14;10
24012;PMS7003;12220;50.194;18.948;2023-02-13T16:38:45;19;13;9
24012;PMS7003;12220;50.194;18.948;2023-02-13T16:40:52;17;16;10
24012;PMS7003;12220;50.194;18.948;2023-02-13T16:43:31;21;18;12
24012;PMS7003;12220;50.194;18.948;2023-02-13T16:47:22;14;14;9
24012;PMS7003;12220;50.194;18.948;2023-02-13T16:49:25;13;13;10
24012;PMS7003;12220;50.194;18.948;2023-02-13T16:53:56;15;13;8
24012;PMS7003;12220;50.194;18.948;2023-02-13T16:56:00;7;7;6
24012;PMS7003;12220;50.194;18.948;2023-02-13T16:58:09;10;9;6
24012;PMS7003;12220;50.194;18.948;2023-02-13T17:00:18;14;13;11
24012;PMS7003;12220;50.194;18.948;2023-02-13T17:02:26;10;10;6
24012;PMS7003;12220;50.194;18.948;2023-02-13T17:04:33;11;11;7
24012;PMS7003;12220;50.194;18.948;2023-02-13T17:06:38;7;7;5
24012;PMS7003;12220;50.194;18.948;2023-02-13T17:08:40;10;10;8
24012;PMS7003;12220;50.194;18.948;2023-02-13T17:10:41;16;10;6
24012;PMS7003;12220;50.194;18.948;2023-02-13T17:12:54;9;9;7